This is the latest recevied weather packets stored in our database for station/object K3MV-13. If no packets are shown the sender has not sent any weather packets the latest 1 day(s).
| Time | Temp. | Humidity | Pressure | Rain* | Wind** | Luminosity | Snow |
|---|---|---|---|---|---|---|---|
| 1778025883 | 18.89° C | 46% | 1009.9 hPa | 0 mm | 0.89 m/s, 216° | 5 W/m² | - |
| 1778025580 | 18.89° C | 46% | 1009.9 hPa | 0 mm | 0.45 m/s, 210° | 7 W/m² | - |
| 1778025278 | 19.44° C | 45% | 1009.9 hPa | 0 mm | 0.89 m/s, 209° | 11 W/m² | - |
| 1778024975 | 19.44° C | 45% | 1010 hPa | 0 mm | 0.89 m/s, 195° | 13 W/m² | - |
| 1778024672 | 19.44° C | 44% | 1009.9 hPa | 0 mm | 0.89 m/s, 261° | 14 W/m² | - |
| 1778024369 | 19.44° C | 44% | 1009.8 hPa | 0 mm | 0.89 m/s, 199° | 17 W/m² | - |
| 1778024067 | 19.44° C | 45% | 1010 hPa | 0 mm | 0.89 m/s, 249° | 21 W/m² | - |
| 1778023764 | 19.44° C | 44% | 1010 hPa | 0 mm | 0.89 m/s, 223° | 23 W/m² | - |
| 1778023462 | 19.44° C | 44% | 1009.9 hPa | 0 mm | 0.45 m/s, 224° | 27 W/m² | - |
| 1778023158 | 19.44° C | 44% | 1009.9 hPa | 0 mm | 0.45 m/s, 233° | 29 W/m² | - |
| 1778022856 | 20° C | 44% | 1009.9 hPa | 0 mm | 0.45 m/s, 253° | 30 W/m² | - |
| 1778022554 | 20° C | 43% | 1009.9 hPa | 0 mm | 0.45 m/s, 218° | 39 W/m² | - |
| 1778022262 | 20° C | 42% | 1009.9 hPa | 0 mm | 0.89 m/s, 166° | 45 W/m² | - |
| 1778021947 | 20° C | 42% | 1009.9 hPa | 0 mm | 0.89 m/s, 213° | 52 W/m² | - |
| 1778021645 | 20° C | 41% | 1010 hPa | 0 mm | 0.89 m/s, 172° | 53 W/m² | - |
| 1778021340 | 20.56° C | 41% | 1009.9 hPa | 0 mm | 0.89 m/s, 265° | 55 W/m² | - |
| 1778021038 | 20.56° C | 43% | 1010 hPa | 0 mm | 0.45 m/s, 189° | 72 W/m² | - |
| 1778020735 | 20.56° C | 41% | 1010.1 hPa | 0 mm | 1.79 m/s, 232° | 95 W/m² | - |
| 1778020432 | 20.56° C | 41% | 1010 hPa | 0 mm | 0.89 m/s, 104° | 103 W/m² | - |
| 1778020128 | 20.56° C | 41% | 1010 hPa | 0 mm | 1.79 m/s, 201° | 87 W/m² | - |
| 1778019824 | 20.56° C | 45% | 1010 hPa | 0 mm | 0.89 m/s, 224° | 103 W/m² | - |
| 1778019521 | 21.11° C | 45% | 1010.1 hPa | 0 mm | 0.89 m/s, 229° | 109 W/m² | - |
| 1778019218 | 21.11° C | 44% | 1010.3 hPa | 0 mm | 1.79 m/s, 173° | 117 W/m² | - |
| 1778018915 | 21.11° C | 43% | 1010.3 hPa | 0 mm | 2.24 m/s, 215° | 121 W/m² | - |
| 1778018612 | 21.11° C | 43% | 1010.3 hPa | 0 mm | 1.34 m/s, 217° | 151 W/m² | - |
* Rain latest hour (hover to see other rain measurements)
** Current wind speed in m/s (hover to see current wind gust speed)